createdAt,value
2022-09-18T00:00:57.087Z,9.462947
2022-09-18T00:01:56.321Z,9.462961
2022-09-18T00:02:56.183Z,9.462956
2022-09-18T00:03:56.148Z,9.462966
2022-09-18T00:04:56.122Z,9.462949
2022-09-18T00:05:56.108Z,9.462948
2022-09-18T00:06:56.248Z,9.462969
2022-09-18T00:07:56.096Z,9.462960
2022-09-18T00:08:56.121Z,9.462957
2022-09-18T00:09:56.073Z,9.462975
2022-09-18T00:10:56.089Z,9.462980
2022-09-18T00:11:56.070Z,9.462937
2022-09-18T00:12:56.804Z,9.462963
2022-09-18T00:13:56.067Z,9.463008
2022-09-18T00:14:56.064Z,9.463023
2022-09-18T00:15:56.191Z,9.463051
2022-09-18T00:16:56.112Z,9.462960
2022-09-18T00:17:56.017Z,9.462977
2022-09-18T00:18:56.020Z,9.463015
2022-09-18T00:19:56.024Z,9.462963
2022-09-18T00:20:56.004Z,9.463020
2022-09-18T00:21:56.015Z,9.462960
2022-09-18T00:22:56.126Z,9.462981
2022-09-18T00:23:55.973Z,9.462950
2022-09-18T00:24:55.975Z,9.462895
2022-09-18T00:25:56.125Z,9.462943
2022-09-18T00:26:55.955Z,9.462907
2022-09-18T00:27:55.952Z,9.463014
2022-09-18T00:28:55.974Z,9.462894
2022-09-18T00:29:55.950Z,9.462834
2022-09-18T00:30:56.024Z,9.462856
2022-09-18T00:31:55.923Z,9.462904
2022-09-18T00:32:55.912Z,9.462882
2022-09-18T00:33:55.916Z,9.463072
2022-09-18T00:34:55.899Z,9.462972
2022-09-18T00:35:55.898Z,9.463030
2022-09-18T00:36:55.889Z,9.463035
2022-09-18T00:37:55.873Z,9.463083
2022-09-18T00:38:55.998Z,9.463110
2022-09-18T00:39:56.406Z,9.463043
2022-09-18T00:40:55.853Z,9.463253
2022-09-18T00:41:55.862Z,9.463035
2022-09-18T00:42:55.847Z,9.462955
2022-09-18T00:43:55.840Z,9.462768
2022-09-18T00:44:55.825Z,9.462818
2022-09-18T00:45:55.825Z,9.462911
2022-09-18T00:46:56.736Z,9.462961
2022-09-18T00:47:55.813Z,9.462823
2022-09-18T00:48:55.805Z,9.462915
2022-09-18T00:49:56.497Z,9.462976
2022-09-18T00:50:55.794Z,9.462956
2022-09-18T00:51:55.782Z,9.463018
2022-09-18T00:52:55.954Z,9.462995
2022-09-18T00:53:55.783Z,9.463004
2022-09-18T00:54:55.874Z,9.463035
2022-09-18T00:55:55.744Z,9.463066
2022-09-18T00:56:55.769Z,9.463056
2022-09-18T00:57:55.813Z,9.463001
2022-09-18T00:58:55.744Z,9.463040
2022-09-18T00:59:55.722Z,9.463003
2022-09-18T01:00:55.809Z,9.463025
2022-09-18T01:01:55.740Z,9.462978
2022-09-18T01:02:55.863Z,9.462977
2022-09-18T01:03:55.690Z,9.462953
2022-09-18T01:04:55.700Z,9.462911
2022-09-18T01:05:55.677Z,9.462959
2022-09-18T01:06:55.745Z,9.462895
2022-09-18T01:07:55.670Z,9.462855
2022-09-18T01:08:55.672Z,9.463092
2022-09-18T01:09:55.670Z,9.462980
2022-09-18T01:10:55.771Z,9.462965
2022-09-18T01:11:55.693Z,9.463023
2022-09-18T01:12:55.644Z,9.463013
2022-09-18T01:13:55.643Z,9.462976
2022-09-18T01:14:55.616Z,9.462914
2022-09-18T01:15:55.693Z,9.462899
2022-09-18T01:16:55.785Z,9.463037
2022-09-18T01:17:55.592Z,9.463017
2022-09-18T01:18:55.604Z,9.462805
2022-09-18T01:19:55.620Z,9.462904
2022-09-18T01:20:56.062Z,9.462946
2022-09-18T01:21:55.600Z,9.463027
2022-09-18T01:22:55.599Z,9.463048
2022-09-18T01:23:56.076Z,9.462961
2022-09-18T01:24:55.570Z,9.463023
2022-09-18T01:25:55.550Z,9.462921
2022-09-18T01:26:55.652Z,9.463040
2022-09-18T01:27:55.549Z,9.463018
2022-09-18T01:28:55.713Z,9.463040
2022-09-18T01:29:55.530Z,9.462946
2022-09-18T01:30:55.600Z,9.462933
2022-09-18T01:31:55.509Z,9.462982
2022-09-18T01:32:55.480Z,9.462953
2022-09-18T01:33:55.577Z,9.462914
2022-09-18T01:34:55.528Z,9.462957
2022-09-18T01:35:55.888Z,9.463003
2022-09-18T01:36:55.470Z,9.463037
2022-09-18T01:37:55.442Z,9.463024
2022-09-18T01:38:55.447Z,9.463022
2022-09-18T01:39:55.483Z,9.463069
2022-09-18T01:40:55.511Z,9.463019
2022-09-18T01:41:55.443Z,9.462998
2022-09-18T01:42:55.538Z,9.462988
2022-09-18T01:43:55.429Z,9.462992
2022-09-18T01:44:55.401Z,9.463030
2022-09-18T01:45:55.395Z,9.462999
2022-09-18T01:46:55.443Z,9.462982
2022-09-18T01:47:55.371Z,9.462995
2022-09-18T01:48:55.410Z,9.462984
2022-09-18T01:49:55.379Z,9.462933
2022-09-18T01:50:55.377Z,9.462939
2022-09-18T01:51:55.351Z,9.462914
2022-09-18T01:52:55.337Z,9.463002
2022-09-18T01:53:55.336Z,9.463033
2022-09-18T01:54:55.326Z,9.463006
2022-09-18T01:55:55.344Z,9.462978
2022-09-18T01:56:55.935Z,9.462998
2022-09-18T01:57:55.320Z,9.463011
2022-09-18T01:58:55.325Z,9.462943
2022-09-18T01:59:55.298Z,9.462930
2022-09-18T02:00:55.281Z,9.462942
2022-09-18T02:01:55.486Z,9.462988
2022-09-18T02:02:55.382Z,9.463059
2022-09-18T02:03:55.270Z,9.463061
2022-09-18T02:04:55.298Z,9.463030
2022-09-18T02:05:55.271Z,9.463028
2022-09-18T02:06:55.242Z,9.462956
2022-09-18T02:07:55.231Z,9.463002
2022-09-18T02:08:55.970Z,9.463014
2022-09-18T02:09:55.219Z,9.463048
2022-09-18T02:10:55.219Z,9.463000
2022-09-18T02:11:55.211Z,9.462934
2022-09-18T02:12:55.329Z,9.462936
2022-09-18T02:13:55.203Z,9.462965
2022-09-18T02:14:55.876Z,9.463004
2022-09-18T02:15:55.275Z,9.463049
2022-09-18T02:16:55.176Z,9.463018
2022-09-18T02:17:55.175Z,9.462977
2022-09-18T02:18:55.178Z,9.463060
2022-09-18T02:19:55.151Z,9.463067
2022-09-18T02:20:55.162Z,9.462983
2022-09-18T02:21:55.212Z,9.462987
2022-09-18T02:22:55.145Z,9.463014
2022-09-18T02:23:55.127Z,9.463020
2022-09-18T02:24:55.160Z,9.462983
2022-09-18T02:25:55.114Z,9.462929
2022-09-18T02:26:55.096Z,9.462931
2022-09-18T02:27:55.641Z,9.462959
2022-09-18T02:28:55.095Z,9.462898
2022-09-18T02:29:55.119Z,9.462803
2022-09-18T02:30:55.245Z,9.462804
2022-09-18T02:31:57.041Z,9.463017
2022-09-18T02:32:55.056Z,9.462997
2022-09-18T02:33:55.061Z,9.462929
2022-09-18T02:34:55.074Z,9.462943
2022-09-18T02:35:55.059Z,9.462925
2022-09-18T02:36:58.623Z,9.462957
2022-09-18T02:37:55.021Z,9.462989
2022-09-18T02:38:55.033Z,9.463066
2022-09-18T02:39:55.113Z,9.463067
2022-09-18T02:40:55.052Z,9.462964
2022-09-18T02:41:55.000Z,9.462983
2022-09-18T02:42:55.005Z,9.462990
2022-09-18T02:43:55.024Z,9.463043
2022-09-18T02:44:55.254Z,9.462978
2022-09-18T02:45:55.040Z,9.462987
2022-09-18T02:46:55.250Z,9.463024
2022-09-18T02:47:54.974Z,9.462994
2022-09-18T02:48:54.997Z,9.462945
2022-09-18T02:49:54.949Z,9.462964
2022-09-18T02:50:55.744Z,9.462903
2022-09-18T02:51:55.798Z,9.462884
2022-09-18T02:52:54.936Z,9.462888
2022-09-18T02:53:54.922Z,9.462858
2022-09-18T02:54:54.902Z,9.462919
2022-09-18T02:55:54.888Z,9.462900
2022-09-18T02:56:55.615Z,9.463008
2022-09-18T02:57:54.886Z,9.463043
2022-09-18T02:58:54.872Z,9.463009
2022-09-18T02:59:54.882Z,9.463019
2022-09-18T03:00:54.855Z,9.462949
2022-09-18T03:01:56.616Z,9.462946
2022-09-18T03:02:54.929Z,9.462966
2022-09-18T03:03:54.888Z,9.462955
2022-09-18T03:04:54.873Z,9.462968
2022-09-18T03:05:54.891Z,9.463054
2022-09-18T03:06:54.822Z,9.463071
2022-09-18T03:07:54.809Z,9.463120
2022-09-18T03:08:55.262Z,9.462962
2022-09-18T03:09:54.793Z,9.462757
2022-09-18T03:10:54.789Z,9.462843
2022-09-18T03:11:54.783Z,9.462907
2022-09-18T03:12:54.770Z,9.462914
2022-09-18T03:13:54.808Z,9.463127
2022-09-18T03:14:55.608Z,9.463081
2022-09-18T03:15:54.816Z,9.462997
2022-09-18T03:16:54.735Z,9.462875
2022-09-18T03:17:54.783Z,9.463130
2022-09-18T03:18:54.775Z,9.463220
2022-09-18T03:19:54.764Z,9.462989
2022-09-18T03:20:54.773Z,9.462884
2022-09-18T03:21:54.720Z,9.462919
2022-09-18T03:22:54.704Z,9.462993
2022-09-18T03:23:54.685Z,9.462924
2022-09-18T03:24:54.740Z,9.462946
2022-09-18T03:25:54.673Z,9.463028
2022-09-18T03:26:54.709Z,9.462857
2022-09-18T03:27:54.684Z,9.462929
2022-09-18T03:28:54.654Z,9.462987
2022-09-18T03:29:54.719Z,9.462917
2022-09-18T03:30:54.725Z,9.463038
2022-09-18T03:31:54.700Z,9.462948
2022-09-18T03:32:54.651Z,9.462984
2022-09-18T03:33:54.774Z,9.462967
2022-09-18T03:34:54.652Z,9.462996
2022-09-18T03:35:54.626Z,9.463016
2022-09-18T03:36:55.041Z,9.462993
2022-09-18T03:37:54.603Z,9.463060
2022-09-18T03:38:54.624Z,9.463049
2022-09-18T03:39:54.625Z,9.462998
2022-09-18T03:40:54.620Z,9.463028
2022-09-18T03:41:54.573Z,9.463059
2022-09-18T03:42:55.089Z,9.463101
2022-09-18T03:43:54.546Z,9.463032
2022-09-18T03:44:54.568Z,9.463019
2022-09-18T03:45:54.541Z,9.463036
2022-09-18T03:46:54.594Z,9.463149
2022-09-18T03:47:54.975Z,9.463167
2022-09-18T03:48:54.569Z,9.463111
2022-09-18T03:49:54.652Z,9.463120
2022-09-18T03:50:54.537Z,9.463128
2022-09-18T03:51:54.543Z,9.463115
2022-09-18T03:52:54.484Z,9.463147
2022-09-18T03:53:54.502Z,9.463148
2022-09-18T03:54:54.479Z,9.463079
2022-09-18T03:55:54.465Z,9.463054
2022-09-18T03:56:54.468Z,9.463133
2022-09-18T03:57:54.456Z,9.463183
2022-09-18T03:58:54.446Z,9.463073
2022-09-18T03:59:54.528Z,9.462998
2022-09-18T04:00:54.430Z,9.463042
2022-09-18T04:01:54.476Z,9.463046
2022-09-18T04:02:55.031Z,9.463034
2022-09-18T04:03:54.482Z,9.463033
2022-09-18T04:04:54.414Z,9.463135
2022-09-18T04:05:54.520Z,9.463164
2022-09-18T04:06:54.408Z,9.463056
2022-09-18T04:07:54.405Z,9.463079
2022-09-18T04:08:54.386Z,9.462952
2022-09-18T04:09:54.388Z,9.462984
2022-09-18T04:10:54.391Z,9.463016
2022-09-18T04:11:54.363Z,9.462982
2022-09-18T04:12:54.369Z,9.463021
2022-09-18T04:13:54.358Z,9.463038
2022-09-18T04:14:54.342Z,9.463017
2022-09-18T04:15:55.423Z,9.463107
2022-09-18T04:16:54.331Z,9.462970
2022-09-18T04:17:54.330Z,9.462885
2022-09-18T04:18:54.372Z,9.462920
2022-09-18T04:19:54.318Z,9.463012
2022-09-18T04:20:54.350Z,9.462845
2022-09-18T04:21:55.619Z,9.462630
2022-09-18T04:22:54.292Z,9.462899
2022-09-18T04:23:54.361Z,9.463216
2022-09-18T04:24:54.277Z,9.462985
2022-09-18T04:25:55.181Z,9.462955
2022-09-18T04:26:54.300Z,9.462930
2022-09-18T04:27:54.275Z,9.462913
2022-09-18T04:28:54.265Z,9.463092
2022-09-18T04:29:54.245Z,9.463027
2022-09-18T04:30:54.320Z,9.462914
2022-09-18T04:31:54.275Z,9.462897
2022-09-18T04:32:54.229Z,9.462962
2022-09-18T04:33:54.278Z,9.462977
2022-09-18T04:34:54.215Z,9.463072
2022-09-18T04:35:54.210Z,9.463078
2022-09-18T04:36:54.197Z,9.462956
2022-09-18T04:37:54.735Z,9.463019
2022-09-18T04:38:54.207Z,9.463032
2022-09-18T04:39:54.336Z,9.463036
2022-09-18T04:40:54.170Z,9.463024
2022-09-18T04:41:54.230Z,9.463156
2022-09-18T04:42:54.166Z,9.463089
2022-09-18T04:43:54.164Z,9.463057
2022-09-18T04:44:54.194Z,9.463115
2022-09-18T04:45:54.150Z,9.462999
2022-09-18T04:46:54.252Z,9.463025
2022-09-18T04:47:54.185Z,9.463024
2022-09-18T04:48:54.157Z,9.463079
2022-09-18T04:49:54.120Z,9.463007
2022-09-18T04:50:54.534Z,9.462953
2022-09-18T04:51:54.100Z,9.462973
2022-09-18T04:52:54.105Z,9.463009
2022-09-18T04:53:54.206Z,9.462997
2022-09-18T04:54:54.079Z,9.462968
2022-09-18T04:55:54.128Z,9.462996
2022-09-18T04:56:54.825Z,9.463002
2022-09-18T04:57:54.732Z,9.463089
2022-09-18T04:58:54.052Z,9.463054
2022-09-18T04:59:54.047Z,9.463035
2022-09-18T05:00:54.188Z,9.463021
2022-09-18T05:01:54.088Z,9.462991
2022-09-18T05:02:54.109Z,9.462976
2022-09-18T05:03:54.011Z,9.462942
2022-09-18T05:04:54.016Z,9.462974
2022-09-18T05:05:54.101Z,9.463014
2022-09-18T05:06:54.006Z,9.463022
2022-09-18T05:07:54.043Z,9.463006
2022-09-18T05:08:53.986Z,9.463035
2022-09-18T05:09:54.107Z,9.463081
2022-09-18T05:10:54.042Z,9.463032
2022-09-18T05:11:53.976Z,9.463021
2022-09-18T05:12:53.972Z,9.463046
2022-09-18T05:13:53.945Z,9.463060
2022-09-18T05:14:53.980Z,9.463048
2022-09-18T05:15:54.006Z,9.463048
2022-09-18T05:16:53.925Z,9.462969
2022-09-18T05:17:54.545Z,9.463022
2022-09-18T05:18:53.916Z,9.463049
2022-09-18T05:19:53.961Z,9.463202
2022-09-18T05:20:55.547Z,9.463072
2022-09-18T05:21:53.954Z,9.463055
2022-09-18T05:22:53.904Z,9.463058
2022-09-18T05:23:53.879Z,9.462989
2022-09-18T05:24:53.896Z,9.463084
2022-09-18T05:25:53.985Z,9.463096
2022-09-18T05:26:54.575Z,9.463125
2022-09-18T05:27:53.849Z,9.463052
2022-09-18T05:28:53.991Z,9.462991
2022-09-18T05:29:53.835Z,9.463023
2022-09-18T05:30:53.838Z,9.463019
2022-09-18T05:31:53.898Z,9.462968
2022-09-18T05:32:58.686Z,9.463009
2022-09-18T05:33:53.801Z,9.462957
2022-09-18T05:34:53.802Z,9.463069
2022-09-18T05:35:54.288Z,9.463080
2022-09-18T05:36:53.792Z,9.463063
2022-09-18T05:37:53.782Z,9.462965
2022-09-18T05:38:53.763Z,9.463105
2022-09-18T05:39:53.833Z,9.463031
2022-09-18T05:40:53.750Z,9.463038
2022-09-18T05:41:53.978Z,9.463097
2022-09-18T05:42:53.741Z,9.462988
2022-09-18T05:43:53.742Z,9.462779
2022-09-18T05:44:53.726Z,9.463056
2022-09-18T05:45:54.174Z,9.463232
2022-09-18T05:46:53.778Z,9.463073
2022-09-18T05:47:53.707Z,9.463199
2022-09-18T05:48:53.719Z,9.463174
2022-09-18T05:49:53.728Z,9.463054
2022-09-18T05:50:53.685Z,9.463047
2022-09-18T05:51:54.423Z,9.463030
2022-09-18T05:52:53.673Z,9.463034
2022-09-18T05:53:54.079Z,9.463035
2022-09-18T05:54:53.681Z,9.463168
2022-09-18T05:55:53.698Z,9.463130
2022-09-18T05:56:53.651Z,9.463841
2022-09-18T05:57:53.780Z,9.463820
2022-09-18T05:58:53.642Z,9.463026
2022-09-18T05:59:53.621Z,9.463025
2022-09-18T06:00:53.624Z,9.463140
2022-09-18T06:01:53.688Z,9.463108
2022-09-18T06:02:53.680Z,9.463050
2022-09-18T06:03:54.153Z,9.463152
2022-09-18T06:04:53.589Z,9.463007
2022-09-18T06:05:53.609Z,9.463083
2022-09-18T06:06:53.579Z,9.463059
2022-09-18T06:07:57.634Z,9.463112
2022-09-18T06:08:54.587Z,9.462986
2022-09-18T06:09:53.568Z,9.463116
2022-09-18T06:10:54.753Z,9.462949
2022-09-18T06:11:53.611Z,9.462990
2022-09-18T06:12:53.536Z,9.462843
2022-09-18T06:13:53.717Z,9.462841
2022-09-18T06:14:53.528Z,9.462934
2022-09-18T06:15:53.600Z,9.463198
2022-09-18T06:16:54.101Z,9.463227
2022-09-18T06:17:53.502Z,9.462783
2022-09-18T06:18:53.492Z,9.462880
2022-09-18T06:19:54.202Z,9.462522
2022-09-18T06:20:53.868Z,9.462522
2022-09-18T06:21:53.507Z,9.462522
2022-09-18T06:22:53.468Z,9.462522
2022-09-18T06:23:53.473Z,9.462522
2022-09-18T06:24:53.762Z,9.462522
2022-09-18T06:25:53.447Z,9.462522
2022-09-18T06:26:53.865Z,9.462522
2022-09-18T06:27:53.430Z,9.462522
2022-09-18T06:28:53.478Z,9.462522
2022-09-18T06:29:53.532Z,9.462522
2022-09-18T06:30:53.406Z,9.462522
2022-09-18T06:31:53.450Z,9.462522
2022-09-18T06:32:53.400Z,9.462522
2022-09-18T06:33:53.381Z,9.462522
2022-09-18T06:34:53.387Z,9.462522
2022-09-18T06:35:53.368Z,9.462522
2022-09-18T06:36:53.389Z,9.462948
2022-09-18T06:37:53.369Z,9.462908
2022-09-18T06:38:54.150Z,9.462917
2022-09-18T06:39:54.218Z,9.462929
2022-09-18T06:40:53.377Z,9.462934
2022-09-18T06:41:53.372Z,9.463016
2022-09-18T06:42:53.385Z,9.463021
2022-09-18T06:43:53.309Z,9.462964
2022-09-18T06:44:53.318Z,9.463017
2022-09-18T06:45:53.445Z,9.462994
2022-09-18T06:46:53.438Z,9.462925
2022-09-18T06:47:53.283Z,9.462695
2022-09-18T06:48:53.283Z,9.462889
2022-09-18T06:49:53.312Z,9.462852
2022-09-18T06:50:53.306Z,9.462963
2022-09-18T06:51:53.262Z,9.462721
2022-09-18T06:52:53.251Z,9.462683
2022-09-18T06:53:53.267Z,9.462635
2022-09-18T06:54:53.271Z,9.462444
2022-09-18T06:55:53.247Z,9.462944
2022-09-18T06:56:53.229Z,9.462999
2022-09-18T06:57:53.269Z,9.463037
2022-09-18T06:58:53.214Z,9.462994
2022-09-18T06:59:53.215Z,9.463058
2022-09-18T07:00:53.248Z,9.462868
2022-09-18T07:01:53.362Z,9.463015
2022-09-18T07:02:53.192Z,9.462931
2022-09-18T07:03:53.287Z,9.463010
2022-09-18T07:04:53.174Z,9.462993
2022-09-18T07:05:53.168Z,9.463090
2022-09-18T07:06:53.505Z,9.463393
2022-09-18T07:07:53.182Z,9.463249
2022-09-18T07:08:53.148Z,9.463091
2022-09-18T07:09:53.138Z,9.462938
2022-09-18T07:10:53.569Z,9.462835
2022-09-18T07:11:53.126Z,9.462838
2022-09-18T07:12:53.177Z,9.462842
2022-09-18T07:13:53.146Z,9.462782
2022-09-18T07:14:53.138Z,9.463000
2022-09-18T07:15:53.173Z,9.462866
2022-09-18T07:16:53.725Z,9.462885
2022-09-18T07:17:53.233Z,9.462947
2022-09-18T07:18:53.141Z,9.462950
2022-09-18T07:19:53.067Z,9.463029
2022-09-18T07:20:53.056Z,9.462955
2022-09-18T07:21:53.100Z,9.462934
2022-09-18T07:22:53.061Z,9.462928
2022-09-18T07:23:53.027Z,9.462925
2022-09-18T07:24:53.081Z,9.462922
2022-09-18T07:25:53.165Z,9.462912
2022-09-18T07:26:53.313Z,9.462898
2022-09-18T07:27:53.036Z,9.462960
2022-09-18T07:28:53.053Z,9.462944
2022-09-18T07:29:53.004Z,9.462991
2022-09-18T07:30:53.068Z,9.462990
2022-09-18T07:31:53.559Z,9.462974
2022-09-18T07:32:53.458Z,9.462987
2022-09-18T07:33:53.084Z,9.462975
2022-09-18T07:34:52.963Z,9.462989
2022-09-18T07:35:52.941Z,9.462982
2022-09-18T07:36:52.944Z,9.462952
2022-09-18T07:37:52.941Z,9.462969
2022-09-18T07:38:52.996Z,9.462959
2022-09-18T07:39:53.055Z,9.462976
2022-09-18T07:40:52.918Z,9.462972
2022-09-18T07:41:52.900Z,9.462952
2022-09-18T07:42:52.923Z,9.462972
2022-09-18T07:43:52.918Z,9.462974
2022-09-18T07:44:54.083Z,9.462979
2022-09-18T07:45:52.917Z,9.462959
2022-09-18T07:46:52.956Z,9.462964
2022-09-18T07:47:52.872Z,9.462965
2022-09-18T07:48:52.884Z,9.462984
2022-09-18T07:49:52.963Z,9.462992
2022-09-18T07:50:52.859Z,9.462989
2022-09-18T07:51:52.851Z,9.462974
2022-09-18T07:52:52.850Z,9.462994
2022-09-18T07:53:53.668Z,9.463015
2022-09-18T07:54:53.255Z,9.463037
2022-09-18T07:55:52.803Z,9.463006
2022-09-18T07:56:52.820Z,9.463002
2022-09-18T07:57:52.808Z,9.462999
2022-09-18T07:58:52.827Z,9.462990
2022-09-18T07:59:52.854Z,9.462960
2022-09-18T08:00:52.787Z,9.462962
2022-09-18T08:01:53.007Z,9.462963
2022-09-18T08:02:52.933Z,9.462964
2022-09-18T08:03:52.819Z,9.462976
2022-09-18T08:04:53.567Z,9.462989
2022-09-18T08:05:52.877Z,9.462976
2022-09-18T08:06:52.737Z,9.462967
2022-09-18T08:07:52.729Z,9.462939
2022-09-18T08:08:55.063Z,9.462976
2022-09-18T08:09:52.737Z,9.462987
2022-09-18T08:10:52.713Z,9.462996
2022-09-18T08:11:52.775Z,9.462968
2022-09-18T08:12:52.697Z,9.462983
2022-09-18T08:13:52.692Z,9.462955
2022-09-18T08:14:52.775Z,9.462983
2022-09-18T08:15:52.727Z,9.462982
2022-09-18T08:16:52.686Z,9.462935
2022-09-18T08:17:52.716Z,9.462906
2022-09-18T08:18:52.665Z,9.463016
2022-09-18T08:19:52.696Z,9.462893
2022-09-18T08:20:52.647Z,9.462974
2022-09-18T08:21:52.854Z,9.463047
2022-09-18T08:22:52.646Z,9.463057
2022-09-18T08:23:52.678Z,9.462982
2022-09-18T08:24:52.636Z,9.463017
2022-09-18T08:25:52.606Z,9.463047
2022-09-18T08:26:52.637Z,9.462957
2022-09-18T08:27:52.593Z,9.462955
2022-09-18T08:28:52.592Z,9.463001
2022-09-18T08:29:52.625Z,9.463022
2022-09-18T08:30:52.599Z,9.462923
2022-09-18T08:31:52.602Z,9.462923
2022-09-18T08:32:53.003Z,9.462945
2022-09-18T08:33:52.618Z,9.462931
2022-09-18T08:34:52.556Z,9.462951
2022-09-18T08:35:52.584Z,9.462914
2022-09-18T08:36:52.526Z,9.462926
2022-09-18T08:37:53.457Z,9.462986
2022-09-18T08:38:52.570Z,9.463012
2022-09-18T08:39:52.583Z,9.462901
2022-09-18T08:40:52.501Z,9.462910
2022-09-18T08:41:52.584Z,9.462956
2022-09-18T08:42:52.490Z,9.462965
2022-09-18T08:43:52.531Z,9.462943
2022-09-18T08:44:52.552Z,9.462982
2022-09-18T08:45:52.484Z,9.463042
2022-09-18T08:46:52.505Z,9.462942
2022-09-18T08:47:52.460Z,9.463008
2022-09-18T08:48:52.471Z,9.463021
2022-09-18T08:49:52.511Z,9.463027
2022-09-18T08:50:52.452Z,9.462956
2022-09-18T08:51:52.523Z,9.462981
2022-09-18T08:52:52.424Z,9.462980
2022-09-18T08:53:53.657Z,9.462976
2022-09-18T08:54:52.422Z,9.462955
2022-09-18T08:55:52.410Z,9.463001
2022-09-18T08:56:52.401Z,9.462978
2022-09-18T08:57:52.387Z,9.462936
2022-09-18T08:58:52.391Z,9.462996
2022-09-18T08:59:52.393Z,9.463037
2022-09-18T09:00:52.418Z,9.463048
2022-09-18T09:01:52.430Z,9.463035
2022-09-18T09:02:53.312Z,9.463054
2022-09-18T09:03:52.416Z,9.463003
2022-09-18T09:04:52.342Z,9.462995
2022-09-18T09:05:52.367Z,9.462996
2022-09-18T09:06:52.332Z,9.462969
2022-09-18T09:07:52.333Z,9.462965
2022-09-18T09:08:52.323Z,9.463000
2022-09-18T09:09:52.438Z,9.462970
2022-09-18T09:10:52.324Z,9.462988
2022-09-18T09:11:52.294Z,9.463035
2022-09-18T09:12:52.298Z,9.463001
2022-09-18T09:13:52.283Z,9.462998
2022-09-18T09:14:57.520Z,9.462996
2022-09-18T09:15:53.360Z,9.462991
2022-09-18T09:16:52.266Z,9.462971
2022-09-18T09:17:52.251Z,9.463013
2022-09-18T09:18:52.250Z,9.463020
2022-09-18T09:19:52.239Z,9.462984
2022-09-18T09:20:52.234Z,9.463034
2022-09-18T09:21:52.682Z,9.462974
2022-09-18T09:22:52.226Z,9.462996
2022-09-18T09:23:52.222Z,9.462958
2022-09-18T09:24:52.236Z,9.462963
2022-09-18T09:25:52.322Z,9.462991
2022-09-18T09:26:52.195Z,9.463070
2022-09-18T09:27:52.178Z,9.462963
2022-09-18T09:28:52.184Z,9.463000
2022-09-18T09:29:52.172Z,9.463007
2022-09-18T09:30:52.175Z,9.462987
2022-09-18T09:31:52.257Z,9.462996
2022-09-18T09:32:52.155Z,9.462948
2022-09-18T09:33:52.241Z,9.463004
2022-09-18T09:34:52.136Z,9.463039
2022-09-18T09:35:52.126Z,9.462948
2022-09-18T09:36:52.114Z,9.462999
2022-09-18T09:37:52.323Z,9.462960
2022-09-18T09:38:52.103Z,9.462926
2022-09-18T09:39:54.636Z,9.462957
2022-09-18T09:40:52.127Z,9.462964
2022-09-18T09:41:52.207Z,9.462988
2022-09-18T09:42:52.074Z,9.463018
2022-09-18T09:43:52.094Z,9.463060
2022-09-18T09:44:52.109Z,9.463021
2022-09-18T09:45:52.103Z,9.463042
2022-09-18T09:46:52.161Z,9.463037
2022-09-18T09:47:52.053Z,9.463050
2022-09-18T09:48:52.041Z,9.462991
2022-09-18T09:49:52.045Z,9.463009
2022-09-18T09:50:52.660Z,9.462989
2022-09-18T09:51:52.373Z,9.463018
2022-09-18T09:52:52.007Z,9.463051
2022-09-18T09:53:51.995Z,9.463030
2022-09-18T09:54:52.233Z,9.463006
2022-09-18T09:55:52.024Z,9.463016
2022-09-18T09:56:52.644Z,9.462994
2022-09-18T09:57:52.092Z,9.463014
2022-09-18T09:58:51.965Z,9.463028
2022-09-18T09:59:51.955Z,9.463012
2022-09-18T10:00:51.999Z,9.462974
2022-09-18T10:01:52.034Z,9.462955
2022-09-18T10:02:51.930Z,9.463022
2022-09-18T10:03:51.944Z,9.463008
2022-09-18T10:04:51.929Z,9.463007
2022-09-18T10:05:53.754Z,9.463092
2022-09-18T10:06:52.814Z,9.463025
2022-09-18T10:07:52.454Z,9.462927
2022-09-18T10:08:51.910Z,9.463096
2022-09-18T10:09:51.892Z,9.463074
2022-09-18T10:10:51.875Z,9.463051
2022-09-18T10:11:56.529Z,9.463071
2022-09-18T10:12:52.883Z,9.463089
2022-09-18T10:13:51.979Z,9.463124
2022-09-18T10:14:52.257Z,9.463050
2022-09-18T10:15:51.904Z,9.463078
2022-09-18T10:16:51.843Z,9.463035
2022-09-18T10:17:51.836Z,9.463012
2022-09-18T10:18:51.908Z,9.462909
2022-09-18T10:19:51.820Z,9.462857
2022-09-18T10:20:51.822Z,9.462946
2022-09-18T10:21:51.818Z,9.462889
2022-09-18T10:22:51.792Z,9.462804
2022-09-18T10:23:51.793Z,9.462825
2022-09-18T10:24:52.463Z,9.462800
2022-09-18T10:25:54.897Z,9.462967
2022-09-18T10:26:51.777Z,9.462952
2022-09-18T10:27:51.771Z,9.463032
2022-09-18T10:28:51.758Z,9.462969
2022-09-18T10:29:52.283Z,9.463045
2022-09-18T10:30:51.781Z,9.463242
2022-09-18T10:31:51.812Z,9.463256
2022-09-18T10:32:51.723Z,9.463142
2022-09-18T10:33:51.733Z,9.462955
2022-09-18T10:34:51.709Z,9.462911
2022-09-18T10:35:51.758Z,9.462961
2022-09-18T10:36:51.751Z,9.462913
2022-09-18T10:37:51.689Z,9.462917
2022-09-18T10:38:51.688Z,9.462927
2022-09-18T10:39:51.965Z,9.462848
2022-09-18T10:40:51.667Z,9.462858
2022-09-18T10:41:51.684Z,9.462921
2022-09-18T10:42:51.658Z,9.462908
2022-09-18T10:43:51.656Z,9.462951
2022-09-18T10:44:51.646Z,9.462953
2022-09-18T10:45:51.753Z,9.462982
2022-09-18T10:46:52.350Z,9.462962
2022-09-18T10:47:51.660Z,9.462957
2022-09-18T10:48:51.616Z,9.462821
2022-09-18T10:49:51.605Z,9.462960
2022-09-18T10:50:51.631Z,9.462908
2022-09-18T10:51:51.601Z,9.462867
2022-09-18T10:52:51.582Z,9.462958
2022-09-18T10:53:51.583Z,9.462998
2022-09-18T10:54:51.567Z,9.463034
2022-09-18T10:55:55.149Z,9.462936
2022-09-18T10:56:51.580Z,9.462962
2022-09-18T10:57:51.600Z,9.462913
2022-09-18T10:58:51.582Z,9.462997
2022-09-18T10:59:51.531Z,9.463022
2022-09-18T11:00:51.573Z,9.462955
2022-09-18T11:01:51.677Z,9.462979
2022-09-18T11:02:51.517Z,9.463060
2022-09-18T11:03:51.961Z,9.463020
2022-09-18T11:04:51.497Z,9.462965
2022-09-18T11:05:51.494Z,9.462960
2022-09-18T11:06:51.539Z,9.462976
2022-09-18T11:07:52.311Z,9.462955
2022-09-18T11:08:51.481Z,9.462995
2022-09-18T11:09:51.594Z,9.463040
2022-09-18T11:10:51.461Z,9.463014
2022-09-18T11:11:51.569Z,9.463012
2022-09-18T11:12:55.588Z,9.463026
2022-09-18T11:13:51.458Z,9.462973
2022-09-18T11:14:51.442Z,9.463029
2022-09-18T11:15:51.486Z,9.463070
2022-09-18T11:16:51.426Z,9.463018
2022-09-18T11:17:51.531Z,9.463008
2022-09-18T11:18:51.442Z,9.463020
2022-09-18T11:19:51.851Z,9.463028
2022-09-18T11:20:51.402Z,9.463045
2022-09-18T11:21:51.398Z,9.463051
2022-09-18T11:22:51.392Z,9.463003
2022-09-18T11:23:51.385Z,9.462908
2022-09-18T11:24:51.369Z,9.463016
2022-09-18T11:25:52.038Z,9.462976
2022-09-18T11:26:51.358Z,9.463055
2022-09-18T11:27:51.352Z,9.463112
2022-09-18T11:28:51.366Z,9.462946
2022-09-18T11:29:51.331Z,9.462960
2022-09-18T11:30:51.346Z,9.462934
2022-09-18T11:31:51.371Z,9.462970
2022-09-18T11:32:51.313Z,9.462966
2022-09-18T11:33:51.549Z,9.463029
2022-09-18T11:34:51.318Z,9.462975
2022-09-18T11:35:51.298Z,9.463050
2022-09-18T11:36:51.309Z,9.462939
2022-09-18T11:37:51.282Z,9.462976
2022-09-18T11:38:51.285Z,9.462953
2022-09-18T11:39:51.301Z,9.462899
2022-09-18T11:40:51.261Z,9.462917
2022-09-18T11:41:51.249Z,9.462811
2022-09-18T11:42:51.249Z,9.462837
2022-09-18T11:43:51.242Z,9.463047
2022-09-18T11:44:51.977Z,9.463043